createdAt,value
2022-08-17T00:00:09.185Z,63.07
2022-08-17T00:02:59.935Z,63.29
2022-08-17T00:05:37.899Z,63.25
2022-08-17T00:08:04.998Z,63.57
2022-08-17T00:10:32.560Z,63.93
2022-08-17T00:12:59.710Z,63.98
2022-08-17T00:15:26.677Z,63.42
2022-08-17T00:17:53.778Z,63.71
2022-08-17T00:20:23.367Z,63.37
2022-08-17T00:23:16.079Z,63.24
2022-08-17T00:25:45.740Z,63.67
2022-08-17T00:28:15.867Z,64.35
2022-08-17T00:30:53.188Z,64.03
2022-08-17T00:33:27.328Z,64.37
2022-08-17T00:35:55.794Z,65.19
2022-08-17T00:38:24.438Z,65.69
2022-08-17T00:40:59.242Z,65.60
2022-08-17T00:43:39.407Z,65.17
2022-08-17T00:46:13.800Z,66.13
2022-08-17T00:48:42.115Z,66.24
2022-08-17T00:51:19.843Z,66.59
2022-08-17T00:54:19.152Z,66.45
2022-08-17T00:56:56.819Z,66.69
2022-08-17T00:59:27.657Z,67.28
2022-08-17T01:01:54.930Z,67.55
2022-08-17T01:04:22.702Z,67.59
2022-08-17T01:06:51.198Z,67.98
2022-08-17T01:09:19.485Z,68.17
2022-08-17T01:11:52.442Z,68.49
2022-08-17T01:14:25.530Z,68.21
2022-08-17T01:16:55.910Z,68.76
2022-08-17T01:19:29.576Z,67.67
2022-08-17T01:22:07.558Z,68.37
2022-08-17T01:24:37.301Z,68.82
2022-08-17T01:27:10.474Z,69.23
2022-08-17T01:29:39.436Z,69.30
2022-08-17T01:32:07.969Z,69.42
2022-08-17T01:34:42.515Z,69.88
2022-08-17T01:37:10.821Z,69.00
2022-08-17T01:39:43.597Z,69.31
2022-08-17T01:42:17.974Z,69.67
2022-08-17T01:44:44.964Z,69.17
2022-08-17T01:47:11.937Z,69.34
2022-08-17T01:49:39.550Z,68.99
2022-08-17T01:52:09.917Z,69.45
2022-08-17T01:54:39.878Z,69.72
2022-08-17T01:57:07.200Z,68.83
2022-08-17T01:59:34.237Z,69.05
2022-08-17T02:02:01.357Z,69.21
2022-08-17T02:04:28.241Z,69.27
2022-08-17T02:06:55.086Z,69.88
2022-08-17T02:09:29.917Z,69.78
2022-08-17T02:11:59.264Z,69.92
2022-08-17T02:14:26.765Z,69.91
2022-08-17T02:16:54.208Z,69.89
2022-08-17T02:19:21.986Z,70.04
2022-08-17T02:21:51.268Z,70.06
2022-08-17T02:24:58.390Z,70.16
2022-08-17T02:27:10.031Z,70.30
2022-08-17T02:29:37.279Z,70.61
2022-08-17T02:32:05.110Z,70.99
2022-08-17T02:34:32.519Z,70.82
2022-08-17T02:36:59.434Z,71.19
2022-08-17T02:39:26.307Z,70.96
2022-08-17T02:42:04.080Z,70.94
2022-08-17T02:44:39.431Z,70.81
2022-08-17T02:47:08.794Z,70.86
2022-08-17T02:49:36.197Z,70.63
2022-08-17T02:52:05.375Z,70.70
2022-08-17T02:54:41.131Z,70.49
2022-08-17T02:57:10.037Z,70.64
2022-08-17T02:59:38.281Z,70.27
2022-08-17T03:02:07.547Z,69.96
2022-08-17T03:04:35.300Z,69.67
2022-08-17T03:07:03.008Z,69.50
2022-08-17T03:09:29.957Z,69.35
2022-08-17T03:12:06.520Z,69.14
2022-08-17T03:14:34.531Z,68.90
2022-08-17T03:17:02.840Z,69.21
2022-08-17T03:19:30.416Z,69.23
2022-08-17T03:22:01.292Z,69.07
2022-08-17T03:24:48.142Z,68.72
2022-08-17T03:27:15.509Z,67.82
2022-08-17T03:29:42.331Z,68.00
2022-08-17T03:32:13.570Z,68.42
2022-08-17T03:34:41.153Z,68.20
2022-08-17T03:37:08.339Z,68.30
2022-08-17T03:39:35.232Z,67.63
2022-08-17T03:42:07.965Z,67.94
2022-08-17T03:44:57.803Z,67.60
2022-08-17T03:47:43.461Z,67.23
2022-08-17T03:50:30.914Z,66.70
2022-08-17T03:53:16.386Z,66.62
2022-08-17T03:56:02.146Z,66.79
2022-08-17T03:58:29.023Z,66.57
2022-08-17T04:00:56.005Z,66.83
2022-08-17T04:03:22.901Z,66.44
2022-08-17T04:05:49.726Z,66.15
2022-08-17T04:08:16.556Z,66.17
2022-08-17T04:10:45.149Z,66.06
2022-08-17T04:13:13.082Z,66.01
2022-08-17T04:15:40.295Z,65.38
2022-08-17T04:18:07.733Z,65.40
2022-08-17T04:20:37.989Z,65.28
2022-08-17T04:23:12.084Z,65.24
2022-08-17T04:25:42.133Z,64.47
2022-08-17T04:28:15.889Z,63.89
2022-08-17T04:30:45.306Z,64.06
2022-08-17T04:33:18.770Z,63.57
2022-08-17T04:35:49.437Z,62.77
2022-08-17T04:38:19.201Z,62.55
2022-08-17T04:41:04.990Z,63.00
2022-08-17T04:43:34.303Z,61.83
2022-08-17T04:46:05.032Z,61.92
2022-08-17T04:48:37.231Z,61.95
2022-08-17T04:51:11.563Z,61.86
2022-08-17T04:53:41.132Z,61.30
2022-08-17T04:56:11.804Z,61.31
2022-08-17T04:58:45.119Z,60.18
2022-08-17T05:01:12.320Z,60.19
2022-08-17T05:03:39.326Z,59.81
2022-08-17T05:06:06.471Z,59.89
2022-08-17T05:08:33.582Z,60.71
2022-08-17T05:11:00.738Z,60.70
2022-08-17T05:13:29.865Z,59.57
2022-08-17T05:15:59.608Z,59.67
2022-08-17T05:18:27.687Z,57.74
2022-08-17T05:20:54.787Z,57.69
2022-08-17T05:23:24.267Z,57.87
2022-08-17T05:25:54.847Z,57.71
2022-08-17T05:28:27.453Z,57.91
2022-08-17T05:30:57.433Z,57.69
2022-08-17T05:33:28.089Z,56.67
2022-08-17T05:35:56.983Z,56.75
2022-08-17T05:38:25.570Z,56.07
2022-08-17T05:40:53.287Z,56.09
2022-08-17T05:43:25.403Z,55.15
2022-08-17T05:46:20.438Z,54.72
2022-08-17T05:49:11.970Z,53.94
2022-08-17T05:51:44.406Z,54.42
2022-08-17T05:54:49.596Z,54.26
2022-08-17T05:57:22.095Z,54.01
2022-08-17T06:00:01.156Z,54.60
2022-08-17T06:02:30.929Z,53.86
2022-08-17T06:05:22.703Z,53.42
2022-08-17T06:07:58.161Z,53.58
2022-08-17T06:10:36.017Z,53.64
2022-08-17T06:13:41.210Z,53.34
2022-08-17T06:16:31.079Z,53.97
2022-08-17T06:19:16.157Z,53.43
2022-08-17T06:21:47.813Z,53.79
2022-08-17T06:24:24.062Z,53.89
2022-08-17T06:26:53.998Z,54.00
2022-08-17T06:29:42.640Z,54.13
2022-08-17T06:32:13.000Z,53.82
2022-08-17T06:34:41.669Z,53.93
2022-08-17T06:37:40.929Z,53.81
2022-08-17T06:40:37.855Z,53.54
2022-08-17T06:43:33.219Z,53.46
2022-08-17T06:46:13.082Z,53.15
2022-08-17T06:48:50.136Z,52.56
2022-08-17T06:51:34.155Z,52.54
2022-08-17T06:54:22.499Z,52.29
2022-08-17T06:56:57.397Z,52.30
2022-08-17T06:59:55.444Z,51.56
2022-08-17T07:02:55.654Z,51.39
2022-08-17T07:05:42.740Z,50.94
2022-08-17T07:08:12.722Z,50.38
2022-08-17T07:10:46.312Z,50.25
2022-08-17T07:13:51.093Z,50.29
2022-08-17T07:16:25.085Z,49.13
2022-08-17T07:18:54.676Z,49.09
2022-08-17T07:22:00.474Z,49.21
2022-08-17T07:24:47.353Z,47.42
2022-08-17T07:27:16.553Z,46.91
2022-08-17T07:30:08.038Z,46.50
2022-08-17T07:32:47.637Z,46.29
2022-08-17T07:35:40.936Z,45.85
2022-08-17T07:38:27.802Z,45.44
2022-08-17T07:40:58.098Z,44.85
2022-08-17T07:43:29.626Z,44.29
2022-08-17T07:46:19.479Z,43.17
2022-08-17T07:48:52.750Z,43.14
2022-08-17T07:51:23.077Z,42.81
2022-08-17T07:53:50.048Z,42.53
2022-08-17T07:56:46.660Z,42.49
2022-08-17T07:59:18.374Z,41.49
2022-08-17T08:01:58.930Z,41.73
2022-08-17T08:05:02.079Z,41.35
2022-08-17T08:07:38.219Z,40.47
2022-08-17T08:10:36.829Z,40.82
2022-08-17T08:13:08.514Z,40.26
2022-08-17T08:15:53.935Z,39.67
2022-08-17T08:18:47.601Z,39.11
2022-08-17T08:21:44.114Z,39.68
2022-08-17T08:24:34.807Z,39.58
2022-08-17T08:27:15.997Z,39.40
2022-08-17T08:30:05.304Z,39.24
2022-08-17T08:32:46.548Z,38.93
2022-08-17T08:35:37.107Z,39.24
2022-08-17T08:38:20.313Z,37.96
2022-08-17T08:41:12.087Z,38.12
2022-08-17T08:43:58.253Z,38.96
2022-08-17T08:46:35.602Z,37.21
2022-08-17T08:49:33.795Z,37.39
2022-08-17T08:52:25.746Z,37.42
2022-08-17T08:55:01.188Z,37.12
2022-08-17T08:57:34.712Z,37.08
2022-08-17T09:00:20.875Z,37.12
2022-08-17T09:03:51.714Z,37.38
2022-08-17T09:06:37.925Z,36.24
2022-08-17T09:09:26.407Z,36.38
2022-08-17T09:12:16.886Z,36.79
2022-08-17T09:15:18.462Z,36.67
2022-08-17T09:18:59.866Z,36.29
2022-08-17T09:21:47.946Z,35.63
2022-08-17T09:24:44.155Z,35.19
2022-08-17T09:27:15.631Z,35.04
2022-08-17T09:29:45.803Z,35.47
2022-08-17T09:32:40.481Z,35.45
2022-08-17T09:35:19.933Z,35.64
2022-08-17T09:38:18.285Z,35.08
2022-08-17T09:41:12.841Z,34.68
2022-08-17T09:43:55.383Z,35.07
2022-08-17T09:46:35.109Z,34.23
2022-08-17T09:49:21.861Z,33.84
2022-08-17T09:52:00.255Z,33.53
2022-08-17T09:54:40.850Z,33.83
2022-08-17T09:57:31.774Z,33.56
2022-08-17T10:00:10.814Z,33.83
2022-08-17T10:03:06.198Z,33.20
2022-08-17T10:05:46.526Z,32.84
2022-08-17T10:08:52.540Z,33.23
2022-08-17T10:12:12.759Z,33.11
2022-08-17T10:15:08.014Z,32.15
2022-08-17T10:17:56.841Z,32.40
2022-08-17T10:20:30.282Z,32.02
2022-08-17T10:23:21.879Z,31.43
2022-08-17T10:26:11.566Z,29.94
2022-08-17T10:29:11.367Z,28.96
2022-08-17T10:31:46.593Z,27.59
2022-08-17T10:34:45.008Z,27.02
2022-08-17T10:37:37.865Z,26.19
2022-08-17T10:40:36.428Z,26.53
2022-08-17T10:43:15.406Z,25.96
2022-08-17T10:45:46.041Z,25.89
2022-08-17T10:48:14.110Z,25.23
2022-08-17T10:50:56.078Z,24.68
2022-08-17T10:53:32.045Z,25.03
2022-08-17T10:56:13.995Z,25.02
2022-08-17T10:58:54.722Z,24.62
2022-08-17T11:02:14.016Z,24.26
2022-08-17T11:04:43.641Z,24.12
2022-08-17T11:07:19.586Z,24.18
2022-08-17T11:10:05.336Z,24.31
2022-08-17T11:12:51.319Z,24.78
2022-08-17T11:15:59.486Z,24.72
2022-08-17T11:19:05.961Z,23.96
2022-08-17T11:21:57.340Z,24.03
2022-08-17T11:24:38.153Z,23.86
2022-08-17T11:27:13.917Z,24.02
2022-08-17T11:29:53.524Z,23.51
2022-08-17T11:32:37.408Z,23.07
2022-08-17T11:35:32.165Z,23.31
2022-08-17T11:38:16.451Z,24.24
2022-08-17T11:41:12.459Z,23.30
2022-08-17T11:44:16.535Z,22.56
2022-08-17T11:47:17.238Z,22.07
2022-08-17T11:50:17.863Z,22.81
2022-08-17T11:52:47.640Z,22.48
2022-08-17T11:55:36.363Z,21.69
2022-08-17T11:58:30.047Z,21.12
2022-08-17T12:01:06.941Z,21.52
2022-08-17T12:03:33.786Z,21.39
2022-08-17T12:06:05.769Z,21.19
2022-08-17T12:08:38.354Z,20.95
2022-08-17T12:11:16.587Z,20.41
2022-08-17T12:14:04.761Z,20.88
2022-08-17T12:16:31.592Z,20.08
2022-08-17T12:19:02.444Z,19.78
2022-08-17T12:21:51.854Z,19.97
2022-08-17T12:24:29.282Z,20.49
2022-08-17T12:26:59.674Z,20.35
2022-08-17T12:29:38.931Z,19.90
2022-08-17T12:32:13.130Z,19.98
2022-08-17T12:34:42.711Z,20.93
2022-08-17T12:37:36.489Z,20.55
2022-08-17T12:40:17.599Z,20.18
2022-08-17T12:42:56.608Z,20.78
2022-08-17T12:45:41.915Z,20.67
2022-08-17T12:48:12.436Z,20.97
2022-08-17T12:50:45.103Z,20.79
2022-08-17T12:53:17.397Z,20.71
2022-08-17T12:55:44.608Z,20.79
2022-08-17T12:58:16.996Z,21.17
2022-08-17T13:00:57.946Z,20.13
2022-08-17T13:03:26.820Z,19.91
2022-08-17T13:06:25.668Z,19.26
2022-08-17T13:08:52.504Z,18.84
2022-08-17T13:11:24.251Z,18.13
2022-08-17T13:13:55.129Z,17.75
2022-08-17T13:16:23.772Z,17.31
2022-08-17T13:19:15.175Z,17.89
2022-08-17T13:21:54.087Z,17.16
2022-08-17T13:24:25.997Z,16.87
2022-08-17T13:26:54.455Z,16.76
2022-08-17T13:29:29.599Z,17.08
2022-08-17T13:32:13.114Z,16.99
2022-08-17T13:35:12.469Z,16.77
2022-08-17T13:37:42.616Z,16.57
2022-08-17T13:40:09.595Z,17.15
2022-08-17T13:42:52.407Z,17.00
2022-08-17T13:45:36.369Z,17.28
2022-08-17T13:48:07.748Z,16.81
2022-08-17T13:50:56.409Z,17.20
2022-08-17T13:53:40.397Z,17.40
2022-08-17T13:56:38.301Z,16.88
2022-08-17T13:59:38.230Z,17.21
2022-08-17T14:02:13.951Z,16.69
2022-08-17T14:04:44.165Z,16.85
2022-08-17T14:07:13.563Z,17.21
2022-08-17T14:09:47.802Z,17.68
2022-08-17T14:12:18.077Z,17.68
2022-08-17T14:14:45.373Z,17.89
2022-08-17T14:17:12.497Z,18.21
2022-08-17T14:19:39.870Z,18.78
2022-08-17T14:22:19.503Z,18.81
2022-08-17T14:24:46.407Z,19.03
2022-08-17T14:27:13.226Z,19.29
2022-08-17T14:29:41.301Z,18.76
2022-08-17T14:32:20.602Z,18.95
2022-08-17T14:34:49.638Z,19.22
2022-08-17T14:37:20.794Z,18.77
2022-08-17T14:39:48.039Z,18.68
2022-08-17T14:42:15.576Z,18.69
2022-08-17T14:44:42.478Z,18.75
2022-08-17T14:47:15.797Z,18.80
2022-08-17T14:49:42.633Z,19.14
2022-08-17T14:52:12.937Z,19.33
2022-08-17T14:54:45.150Z,19.21
2022-08-17T14:57:24.880Z,19.48
2022-08-17T14:59:59.917Z,19.30
2022-08-17T15:02:29.631Z,19.94
2022-08-17T15:05:02.994Z,20.52
2022-08-17T15:07:31.046Z,20.77
2022-08-17T15:10:02.052Z,21.48
2022-08-17T15:12:33.656Z,21.55
2022-08-17T15:15:01.836Z,22.02
2022-08-17T15:17:44.397Z,22.47
2022-08-17T15:20:19.148Z,21.88
2022-08-17T15:22:49.800Z,22.78
2022-08-17T15:25:18.962Z,22.33
2022-08-17T15:27:46.235Z,22.90
2022-08-17T15:30:13.622Z,22.37
2022-08-17T15:32:50.896Z,23.19
2022-08-17T15:35:26.798Z,23.60
2022-08-17T15:37:56.619Z,24.31
2022-08-17T15:40:23.446Z,24.15
2022-08-17T15:42:51.130Z,25.25
2022-08-17T15:45:23.034Z,25.45
2022-08-17T15:47:49.947Z,25.77
2022-08-17T15:50:17.030Z,26.27
2022-08-17T15:52:45.001Z,26.80
2022-08-17T15:55:13.959Z,27.50
2022-08-17T15:57:41.311Z,27.14
2022-08-17T16:00:09.813Z,27.44
2022-08-17T16:03:14.013Z,28.11
2022-08-17T16:05:27.336Z,28.44
2022-08-17T16:07:55.840Z,28.51
2022-08-17T16:10:35.509Z,29.33
2022-08-17T16:13:04.239Z,29.30
2022-08-17T16:15:31.987Z,29.51
2022-08-17T16:17:59.653Z,29.89
2022-08-17T16:20:27.088Z,30.05
2022-08-17T16:22:54.954Z,30.46
2022-08-17T16:25:52.533Z,30.22
2022-08-17T16:28:20.108Z,31.19
2022-08-17T16:30:46.951Z,30.96
2022-08-17T16:33:15.080Z,31.23
2022-08-17T16:35:42.169Z,31.28
2022-08-17T16:38:09.630Z,31.62
2022-08-17T16:40:36.692Z,31.75
2022-08-17T16:43:07.030Z,31.64
2022-08-17T16:45:36.773Z,32.02
2022-08-17T16:48:04.514Z,31.95
2022-08-17T16:50:32.346Z,32.07
2022-08-17T16:53:08.283Z,32.27
2022-08-17T16:55:35.835Z,32.69
2022-08-17T16:58:06.880Z,32.50
2022-08-17T17:00:34.127Z,33.01
2022-08-17T17:03:19.090Z,32.87
2022-08-17T17:06:13.496Z,33.15
2022-08-17T17:08:52.287Z,33.28
2022-08-17T17:11:27.011Z,33.70
2022-08-17T17:14:01.571Z,33.74
2022-08-17T17:16:45.690Z,33.78
2022-08-17T17:19:40.642Z,34.08
2022-08-17T17:22:30.736Z,34.24
2022-08-17T17:25:06.446Z,34.26
2022-08-17T17:28:01.237Z,34.22
2022-08-17T17:31:01.931Z,33.77
2022-08-17T17:33:48.946Z,34.15
2022-08-17T17:36:28.763Z,34.20
2022-08-17T17:39:12.068Z,34.11
2022-08-17T17:41:51.280Z,34.39
2022-08-17T17:44:24.715Z,34.58
2022-08-17T17:47:00.309Z,34.79
2022-08-17T17:49:38.580Z,35.00
2022-08-17T17:52:19.439Z,35.20
2022-08-17T17:55:10.466Z,34.85
2022-08-17T17:57:58.915Z,34.97
2022-08-17T18:00:30.105Z,35.21
2022-08-17T18:03:20.423Z,35.04
2022-08-17T18:05:47.229Z,35.58
2022-08-17T18:08:42.013Z,35.42
2022-08-17T18:11:24.540Z,35.77
2022-08-17T18:14:14.475Z,35.94
2022-08-17T18:16:43.043Z,36.09
2022-08-17T18:19:19.852Z,35.94
2022-08-17T18:21:54.688Z,36.28
2022-08-17T18:24:38.731Z,36.02
2022-08-17T18:27:28.589Z,36.17
2022-08-17T18:29:57.588Z,36.78
2022-08-17T18:32:31.163Z,36.95
2022-08-17T18:35:00.226Z,37.44
2022-08-17T18:37:40.303Z,37.28
2022-08-17T18:40:16.307Z,37.24
2022-08-17T18:43:04.586Z,37.16
2022-08-17T18:45:40.930Z,37.39
2022-08-17T18:48:20.744Z,37.50
2022-08-17T18:50:47.777Z,37.80
2022-08-17T18:53:33.206Z,37.88
2022-08-17T18:56:27.630Z,37.72
2022-08-17T18:59:22.609Z,37.88
2022-08-17T19:02:27.208Z,38.50
2022-08-17T19:05:13.694Z,38.63
2022-08-17T19:07:45.545Z,38.74
2022-08-17T19:10:31.851Z,38.71
2022-08-17T19:13:26.955Z,38.43
2022-08-17T19:16:12.168Z,38.71
2022-08-17T19:18:53.663Z,38.71
2022-08-17T19:21:23.243Z,39.22
2022-08-17T19:24:03.451Z,38.98
2022-08-17T19:26:54.369Z,39.38
2022-08-17T19:29:34.832Z,39.29
2022-08-17T19:32:02.041Z,39.51
2022-08-17T19:34:34.774Z,39.73
2022-08-17T19:37:38.785Z,39.44
2022-08-17T19:43:47.955Z,39.58
2022-08-17T19:46:24.568Z,40.26
2022-08-17T19:48:54.055Z,40.62
2022-08-17T19:51:45.469Z,40.90
2022-08-17T19:54:45.209Z,40.78
2022-08-17T19:57:11.928Z,41.55
2022-08-17T19:59:55.941Z,41.29
2022-08-17T20:02:34.869Z,41.57
2022-08-17T20:05:18.674Z,42.37
2022-08-17T20:08:05.749Z,42.50
2022-08-17T20:10:58.700Z,43.27
2022-08-17T20:13:35.729Z,44.03
2022-08-17T20:16:04.287Z,44.65
2022-08-17T20:18:36.303Z,45.19
2022-08-17T20:21:26.823Z,44.96
2022-08-17T20:24:16.618Z,45.88
2022-08-17T20:26:58.500Z,46.17
2022-08-17T20:29:51.673Z,46.12
2022-08-17T20:32:28.547Z,46.38
2022-08-17T20:35:09.196Z,46.41
2022-08-17T20:37:39.342Z,46.75
2022-08-17T20:40:09.424Z,46.58
2022-08-17T20:42:37.575Z,46.80
2022-08-17T20:45:26.100Z,46.46
2022-08-17T20:48:27.257Z,46.54
2022-08-17T20:50:56.381Z,46.57
2022-08-17T20:53:48.123Z,46.58
2022-08-17T20:56:49.165Z,46.39
2022-08-17T20:59:30.348Z,46.83
2022-08-17T21:02:18.952Z,46.49
2022-08-17T21:05:05.452Z,46.71
2022-08-17T21:07:43.000Z,46.67
2022-08-17T21:10:25.964Z,46.60
2022-08-17T21:12:55.841Z,46.99
2022-08-17T21:16:19.954Z,46.53
2022-08-17T21:19:00.440Z,47.51
2022-08-17T21:22:05.506Z,47.39
2022-08-17T21:25:06.031Z,47.76
2022-08-17T21:28:18.100Z,48.19
2022-08-17T21:30:54.478Z,49.21
2022-08-17T21:33:34.191Z,50.08
2022-08-17T21:36:12.971Z,50.27
2022-08-17T21:38:57.763Z,50.24
2022-08-17T21:41:30.825Z,51.35
2022-08-17T21:44:13.785Z,50.95
2022-08-17T21:46:46.737Z,51.55
2022-08-17T21:49:18.420Z,52.26
2022-08-17T21:51:50.521Z,52.64
2022-08-17T21:54:38.918Z,52.64
2022-08-17T21:57:14.724Z,52.56
2022-08-17T21:59:43.692Z,53.07
2022-08-17T22:02:24.008Z,52.97
2022-08-17T22:05:07.096Z,53.54
2022-08-17T22:07:50.621Z,54.00
2022-08-17T22:10:35.053Z,54.31
2022-08-17T22:13:16.717Z,54.95
2022-08-17T22:15:50.255Z,55.40
2022-08-17T22:18:26.920Z,55.97
2022-08-17T22:20:56.568Z,56.31
2022-08-17T22:23:47.041Z,56.28
2022-08-17T22:26:16.979Z,56.69
2022-08-17T22:28:53.587Z,57.09
2022-08-17T22:31:24.388Z,57.62
2022-08-17T22:34:09.486Z,57.91
2022-08-17T22:36:39.032Z,58.25
2022-08-17T22:39:28.484Z,58.29
2022-08-17T22:42:00.469Z,58.78
2022-08-17T22:44:37.818Z,59.19
2022-08-17T22:47:11.557Z,59.96
2022-08-17T22:49:53.889Z,59.47
2022-08-17T22:53:01.898Z,59.26
2022-08-17T22:55:50.080Z,60.18
2022-08-17T22:58:38.953Z,60.73
2022-08-17T23:01:29.733Z,60.69
2022-08-17T23:04:01.540Z,61.69
2022-08-17T23:06:29.136Z,58.41
2022-08-17T23:08:57.705Z,62.32
2022-08-17T23:11:36.677Z,62.86
2022-08-17T23:14:15.846Z,62.53
2022-08-17T23:16:43.003Z,62.93
2022-08-17T23:19:11.537Z,62.81
2022-08-17T23:21:38.466Z,63.12
2022-08-17T23:24:07.883Z,63.27
2022-08-17T23:26:41.017Z,64.05
2022-08-17T23:29:09.434Z,64.07
2022-08-17T23:31:38.946Z,63.94
2022-08-17T23:34:11.643Z,65.24
2022-08-17T23:36:38.479Z,65.20
2022-08-17T23:39:07.027Z,65.47
2022-08-17T23:41:37.563Z,65.52
2022-08-17T23:44:05.936Z,64.58
2022-08-17T23:46:33.051Z,64.25
2022-08-17T23:49:00.513Z,63.53
2022-08-17T23:51:34.820Z,63.03
2022-08-17T23:54:11.652Z,62.50
2022-08-17T23:56:47.694Z,61.88
2022-08-17T23:59:16.410Z,61.75
